This is the latest recevied weather packets stored in our database for station/object OH1KK. If no packets are shown the sender has not sent any weather packets the latest 10 day(s).
| Time | Temp. | Humidity | Pressure | Rain* | Wind** | Luminosity | Snow |
|---|---|---|---|---|---|---|---|
| 1777972790 | 5.56° C | 58% | 990.7 hPa | 0 mm | - | - | - |
| 1777970960 | 5° C | 59% | 990.2 hPa | 0 mm | - | - | - |
| 1777970044 | 5° C | 62% | 989.9 hPa | 0 mm | - | - | - |
| 1777969190 | 5.56° C | 62% | 989.6 hPa | 0 mm | - | - | - |
| 1777968276 | 6.11° C | 61% | 989.6 hPa | 0 mm | - | - | - |
| 1777966445 | 5.56° C | 65% | 989.6 hPa | 0 mm | - | - | - |
| 1777965590 | 4.44° C | 69% | 989.3 hPa | 0 mm | - | - | - |
| 1777964677 | 4.44° C | 72% | 989.2 hPa | 0 mm | - | - | - |
| 1777963760 | 4.44° C | 74% | 989.2 hPa | 0 mm | - | - | - |
| 1777962845 | 3.89° C | 76% | 989 hPa | 0 mm | - | - | - |
| 1777961991 | 3.89° C | 77% | 989 hPa | 0 mm | - | - | - |
| 1777961076 | 3.33° C | 80% | 989 hPa | 0 mm | - | - | - |
| 1777960162 | 3.33° C | 83% | 989 hPa | 0 mm | - | - | - |
| 1777959246 | 2.78° C | 87% | 989.1 hPa | 0 mm | - | - | - |
| 1777957477 | 2.78° C | 87% | 989 hPa | 0 mm | - | - | - |
| 1777956563 | 2.78° C | 88% | 988.9 hPa | 0 mm | - | - | - |
| 1777954793 | 2.22° C | 89% | 988.9 hPa | 0 mm | - | - | - |
| 1777953878 | 2.22° C | 90% | 989 hPa | 0 mm | - | - | - |
| 1777943080 | 2.22° C | 94% | 989.2 hPa | 0 mm | - | - | - |
| 1777939480 | 2.22° C | 96% | 989 hPa | 0 mm | - | - | - |
| 1777937650 | 2.22° C | 95% | 989.1 hPa | 0 mm | - | - | - |
| 1777929597 | 2.78° C | 92% | 989.1 hPa | 0 mm | - | - | - |
| 1777920569 | 5.56° C | 80% | 989.2 hPa | 0 mm | - | - | - |
| 1777919653 | 6.11° C | 75% | 989.4 hPa | 0 mm | - | - | - |
| 1777910687 | 7.22° C | 51% | 989.9 hPa | 0 mm | - | - | - |
* Rain latest hour (hover to see other rain measurements)
** Current wind speed in m/s (hover to see current wind gust speed)